createdAt,value
2023-06-10T00:00:06.806Z,20.68
2023-06-10T00:02:33.407Z,20.55
2023-06-10T00:04:59.985Z,20.39
2023-06-10T00:07:26.580Z,20.23
2023-06-10T00:09:53.252Z,20.13
2023-06-10T00:12:21.481Z,20.05
2023-06-10T00:14:51.986Z,19.96
2023-06-10T00:17:18.911Z,19.96
2023-06-10T00:19:48.203Z,19.96
2023-06-10T00:22:15.578Z,19.90
2023-06-10T00:24:43.078Z,19.78
2023-06-10T00:27:09.541Z,19.68
2023-06-10T00:29:36.328Z,19.71
2023-06-10T00:32:03.251Z,19.73
2023-06-10T00:34:29.944Z,19.72
2023-06-10T00:36:56.453Z,19.64
2023-06-10T00:39:23.003Z,19.55
2023-06-10T00:41:49.551Z,19.51
2023-06-10T00:44:16.925Z,19.46
2023-06-10T00:46:44.100Z,19.38
2023-06-10T00:49:10.982Z,19.30
2023-06-10T00:51:37.524Z,19.25
2023-06-10T00:54:05.383Z,19.23
2023-06-10T00:56:33.560Z,19.14
2023-06-10T00:59:00.491Z,19.06
2023-06-10T01:01:27.775Z,19.00
2023-06-10T01:03:54.259Z,18.95
2023-06-10T01:06:58.384Z,18.86
2023-06-10T01:10:02.229Z,18.78
2023-06-10T01:12:42.605Z,18.68
2023-06-10T01:15:11.460Z,18.61
2023-06-10T01:17:59.415Z,18.55
2023-06-10T01:20:30.891Z,18.52
2023-06-10T01:22:59.104Z,18.42
2023-06-10T01:25:30.665Z,18.40
2023-06-10T01:28:26.624Z,18.37
2023-06-10T01:30:56.945Z,18.33
2023-06-10T01:33:28.944Z,18.33
2023-06-10T01:35:58.512Z,18.31
2023-06-10T01:38:27.767Z,18.30
2023-06-10T01:40:56.515Z,18.29
2023-06-10T01:43:23.195Z,18.31
2023-06-10T01:45:50.016Z,18.30
2023-06-10T01:48:17.434Z,18.35
2023-06-10T01:50:45.023Z,18.31
2023-06-10T01:53:11.481Z,18.32
2023-06-10T01:55:37.979Z,18.33
2023-06-10T01:58:04.479Z,18.31
2023-06-10T02:00:32.211Z,18.21
2023-06-10T02:02:58.891Z,18.11
2023-06-10T02:05:25.951Z,17.98
2023-06-10T02:07:52.411Z,17.91
2023-06-10T02:10:18.925Z,17.83
2023-06-10T02:12:45.429Z,17.78
2023-06-10T02:15:12.109Z,17.73
2023-06-10T02:17:38.866Z,17.72
2023-06-10T02:20:08.293Z,17.69
2023-06-10T02:22:34.927Z,17.67
2023-06-10T02:25:01.533Z,17.65
2023-06-10T02:27:28.461Z,17.60
2023-06-10T02:29:55.133Z,17.58
2023-06-10T02:32:21.768Z,17.46
2023-06-10T02:34:50.171Z,17.48
2023-06-10T02:37:17.062Z,17.48
2023-06-10T02:39:43.631Z,17.46
2023-06-10T02:42:11.206Z,17.44
2023-06-10T02:44:38.010Z,17.39
2023-06-10T02:47:04.895Z,17.34
2023-06-10T02:49:31.567Z,17.28
2023-06-10T02:51:58.260Z,17.23
2023-06-10T02:54:25.428Z,17.20
2023-06-10T02:56:53.411Z,17.14
2023-06-10T02:59:20.098Z,17.13
2023-06-10T03:01:48.516Z,17.12
2023-06-10T03:04:15.900Z,17.09
2023-06-10T03:06:42.777Z,17.09
2023-06-10T03:09:09.498Z,17.07
2023-06-10T03:11:36.461Z,17.07
2023-06-10T03:14:03.627Z,17.05
2023-06-10T03:16:31.535Z,17.04
2023-06-10T03:18:58.352Z,17.02
2023-06-10T03:21:24.977Z,17.01
2023-06-10T03:23:51.553Z,16.95
2023-06-10T03:26:18.153Z,16.94
2023-06-10T03:28:44.634Z,16.88
2023-06-10T03:31:11.233Z,16.85
2023-06-10T03:33:38.540Z,16.85
2023-06-10T03:36:05.538Z,16.81
2023-06-10T03:38:31.997Z,16.83
2023-06-10T03:40:58.505Z,16.85
2023-06-10T03:43:24.967Z,16.94
2023-06-10T03:45:51.481Z,16.97
2023-06-10T03:48:18.130Z,16.97
2023-06-10T03:50:44.696Z,16.96
2023-06-10T03:53:11.360Z,16.96
2023-06-10T03:55:37.956Z,17.00
2023-06-10T03:58:04.479Z,17.08
2023-06-10T04:00:31.096Z,17.14
2023-06-10T04:02:59.231Z,17.11
2023-06-10T04:05:25.910Z,17.12
2023-06-10T04:07:52.461Z,17.18
2023-06-10T04:10:19.173Z,17.14
2023-06-10T04:12:45.761Z,17.12
2023-06-10T04:15:12.610Z,17.13
2023-06-10T04:17:39.556Z,17.14
2023-06-10T04:20:08.754Z,17.17
2023-06-10T04:22:35.275Z,17.18
2023-06-10T04:25:01.858Z,17.19
2023-06-10T04:27:28.739Z,17.39
2023-06-10T04:29:55.590Z,17.64
2023-06-10T04:32:22.585Z,18.06
2023-06-10T04:34:50.038Z,18.75
2023-06-10T04:37:16.499Z,19.59
2023-06-10T04:39:43.118Z,20.36
2023-06-10T04:42:09.839Z,21.06
2023-06-10T04:44:36.327Z,21.57
2023-06-10T04:47:03.319Z,21.83
2023-06-10T04:49:30.869Z,22.05
2023-06-10T04:51:57.327Z,22.55
2023-06-10T04:54:23.790Z,23.02
2023-06-10T04:56:50.412Z,23.24
2023-06-10T04:59:16.909Z,23.45
2023-06-10T05:01:43.419Z,23.76
2023-06-10T05:04:10.044Z,24.21
2023-06-10T05:06:37.649Z,24.54
2023-06-10T05:09:04.210Z,24.72
2023-06-10T05:11:30.762Z,25.06
2023-06-10T05:13:57.202Z,25.30
2023-06-10T05:16:23.732Z,25.55
2023-06-10T05:18:51.993Z,25.69
2023-06-10T05:21:18.535Z,25.91
2023-06-10T05:23:45.011Z,26.08
2023-06-10T05:26:11.852Z,26.44
2023-06-10T05:28:38.353Z,26.63
2023-06-10T05:31:04.971Z,26.75
2023-06-10T05:33:31.353Z,26.52
2023-06-10T05:35:57.840Z,26.69
2023-06-10T05:38:24.344Z,26.50
2023-06-10T05:40:50.802Z,26.43
2023-06-10T05:43:17.886Z,26.77
2023-06-10T05:45:44.551Z,27.04
2023-06-10T05:48:11.297Z,27.20
2023-06-10T05:50:39.917Z,27.61
2023-06-10T05:53:08.259Z,27.81
2023-06-10T05:55:35.006Z,28.11
2023-06-10T05:58:01.800Z,28.42
2023-06-10T06:00:28.490Z,28.62
2023-06-10T06:02:55.672Z,28.82
2023-06-10T06:05:22.336Z,29.02
2023-06-10T06:07:48.952Z,28.92
2023-06-10T06:10:15.644Z,28.99
2023-06-10T06:12:42.091Z,29.30
2023-06-10T06:15:09.972Z,29.51
2023-06-10T06:17:36.711Z,29.72
2023-06-10T06:20:04.514Z,29.83
2023-06-10T06:22:31.067Z,29.94
2023-06-10T06:24:57.692Z,30.12
2023-06-10T06:27:24.180Z,30.28
2023-06-10T06:29:51.864Z,29.54
2023-06-10T06:32:19.148Z,30.13
2023-06-10T06:34:45.928Z,30.45
2023-06-10T06:37:12.396Z,30.75
2023-06-10T06:39:38.749Z,30.83
2023-06-10T06:42:06.818Z,30.90
2023-06-10T06:44:33.337Z,30.77
2023-06-10T06:46:59.785Z,30.74
2023-06-10T06:49:26.216Z,30.52
2023-06-10T06:51:52.613Z,30.43
2023-06-10T06:54:19.107Z,30.48
2023-06-10T06:56:45.482Z,30.27
2023-06-10T06:59:14.977Z,30.04
2023-06-10T07:01:41.538Z,30.46
2023-06-10T07:04:08.086Z,31.00
2023-06-10T07:06:36.988Z,30.53
2023-06-10T07:09:06.017Z,31.07
2023-06-10T07:11:32.471Z,30.75
2023-06-10T07:13:58.835Z,31.12
2023-06-10T07:16:25.472Z,31.15
2023-06-10T07:18:51.995Z,31.48
2023-06-10T07:21:18.493Z,30.77
2023-06-10T07:23:45.908Z,30.58
2023-06-10T07:26:14.378Z,30.37
2023-06-10T07:28:41.934Z,30.33
2023-06-10T07:31:09.343Z,30.20
2023-06-10T07:33:35.903Z,29.91
2023-06-10T07:36:02.382Z,29.51
2023-06-10T07:38:28.791Z,29.47
2023-06-10T07:40:55.279Z,28.83
2023-06-10T07:43:21.709Z,28.75
2023-06-10T07:45:48.294Z,28.73
2023-06-10T07:48:14.947Z,28.27
2023-06-10T07:50:41.643Z,28.48
2023-06-10T07:53:08.253Z,29.83
2023-06-10T07:55:34.777Z,30.11
2023-06-10T07:58:01.278Z,29.77
2023-06-10T08:00:27.811Z,30.11
2023-06-10T08:02:54.343Z,30.78
2023-06-10T08:05:21.940Z,30.56
2023-06-10T08:07:48.656Z,30.99
2023-06-10T08:10:15.205Z,30.11
2023-06-10T08:12:41.737Z,30.29
2023-06-10T08:15:09.099Z,30.99
2023-06-10T08:17:35.915Z,30.45
2023-06-10T08:20:02.595Z,29.62
2023-06-10T08:22:30.520Z,28.46
2023-06-10T08:24:57.536Z,29.00
2023-06-10T08:27:24.205Z,29.47
2023-06-10T08:29:50.844Z,29.62
2023-06-10T08:32:17.669Z,30.06
2023-06-10T08:34:44.327Z,30.84
2023-06-10T08:37:10.842Z,29.81
2023-06-10T08:39:37.330Z,29.21
2023-06-10T08:42:22.639Z,29.73
2023-06-10T08:44:54.006Z,28.83
2023-06-10T08:47:23.020Z,29.10
2023-06-10T08:49:50.091Z,29.81
2023-06-10T08:52:21.663Z,30.21
2023-06-10T08:55:12.702Z,30.35
2023-06-10T08:57:39.488Z,29.78
2023-06-10T09:00:07.682Z,30.56
2023-06-10T09:02:38.837Z,30.50
2023-06-10T09:05:06.633Z,29.36
2023-06-10T09:07:35.453Z,29.39
2023-06-10T09:10:04.124Z,29.73
2023-06-10T09:12:30.758Z,28.42
2023-06-10T09:14:57.447Z,28.64
2023-06-10T09:19:58.120Z,29.76
2023-06-10T09:22:27.525Z,30.17
2023-06-10T09:25:38.707Z,28.74
2023-06-10T09:28:21.043Z,28.61
2023-06-10T09:30:47.688Z,28.96
2023-06-10T09:33:18.628Z,29.27
2023-06-10T09:35:50.169Z,29.91
2023-06-10T09:38:22.745Z,30.30
2023-06-10T09:41:00.215Z,30.19
2023-06-10T09:43:46.247Z,30.52
2023-06-10T09:46:29.330Z,30.33
2023-06-10T09:52:30.878Z,30.55
2023-06-10T10:05:08.161Z,28.31
2023-06-10T10:07:35.026Z,28.60
2023-06-10T10:10:01.478Z,28.66
2023-06-10T10:12:28.844Z,28.89
2023-06-10T10:14:57.027Z,29.57
2023-06-10T10:17:26.076Z,29.90
2023-06-10T10:19:59.131Z,30.38
2023-06-10T10:22:36.290Z,29.82
2023-06-10T10:25:07.071Z,29.92
2023-06-10T10:28:02.594Z,28.09
2023-06-10T10:30:31.216Z,28.12
2023-06-10T10:33:41.755Z,28.57
2023-06-10T10:36:08.953Z,29.57
2023-06-10T10:38:36.973Z,29.73
2023-06-10T10:41:04.936Z,29.32
2023-06-10T10:43:31.943Z,29.70
2023-06-10T10:48:45.386Z,29.65
2023-06-10T10:51:12.363Z,29.66
2023-06-10T10:53:40.136Z,29.94
2023-06-10T10:56:15.450Z,30.00
2023-06-10T10:58:42.188Z,29.48
2023-06-10T11:01:16.061Z,28.62
2023-06-10T11:03:48.200Z,29.32
2023-06-10T11:06:16.699Z,29.64
2023-06-10T11:08:43.699Z,30.65
2023-06-10T11:11:26.839Z,30.53
2023-06-10T11:14:07.963Z,29.00
2023-06-10T11:16:43.454Z,29.25
2023-06-10T11:19:11.142Z,29.48
2023-06-10T11:22:04.966Z,29.94
2023-06-10T11:24:31.833Z,29.83
2023-06-10T11:27:20.716Z,30.39
2023-06-10T11:30:06.738Z,30.67
2023-06-10T11:32:36.534Z,30.80
2023-06-10T11:35:08.216Z,29.87
2023-06-10T11:37:35.108Z,31.17
2023-06-10T11:40:01.865Z,31.12
2023-06-10T11:42:28.909Z,31.66
2023-06-10T11:44:55.836Z,32.13
2023-06-10T11:47:23.271Z,32.36
2023-06-10T11:49:59.784Z,31.91
2023-06-10T11:52:33.305Z,31.67
2023-06-10T11:55:00.289Z,31.17
2023-06-10T11:57:26.968Z,31.19
2023-06-10T11:59:53.506Z,30.49
2023-06-10T12:02:20.513Z,30.01
2023-06-10T12:04:47.213Z,30.42
2023-06-10T12:07:20.857Z,29.88
2023-06-10T12:09:47.625Z,30.01
2023-06-10T12:12:14.172Z,30.41
2023-06-10T12:15:07.103Z,30.45
2023-06-10T12:17:40.241Z,30.24
2023-06-10T12:20:25.190Z,30.91
2023-06-10T12:22:51.721Z,31.73
2023-06-10T12:25:18.224Z,32.52
2023-06-10T12:27:52.999Z,33.10
2023-06-10T12:30:21.882Z,32.29
2023-06-10T12:32:49.250Z,31.39
2023-06-10T12:35:19.199Z,30.26
2023-06-10T12:38:07.750Z,29.76
2023-06-10T12:40:43.273Z,29.90
2023-06-10T12:43:10.654Z,30.06
2023-06-10T12:45:40.936Z,30.63
2023-06-10T12:48:18.841Z,31.31
2023-06-10T12:50:45.769Z,31.02
2023-06-10T12:53:12.602Z,31.22
2023-06-10T12:55:39.808Z,31.59
2023-06-10T12:58:06.425Z,31.77
2023-06-10T13:00:33.005Z,30.97
2023-06-10T13:03:03.353Z,30.12
2023-06-10T13:05:30.623Z,30.78
2023-06-10T13:07:57.229Z,30.95
2023-06-10T13:10:26.040Z,30.96
2023-06-10T13:12:53.515Z,31.18
2023-06-10T13:15:20.109Z,31.07
2023-06-10T13:17:50.302Z,31.36
2023-06-10T13:20:17.987Z,31.43
2023-06-10T13:22:44.717Z,31.68
2023-06-10T13:25:11.770Z,32.21
2023-06-10T13:27:43.419Z,31.64
2023-06-10T13:30:12.123Z,30.96
2023-06-10T13:32:39.524Z,30.70
2023-06-10T13:35:06.851Z,30.59
2023-06-10T13:37:34.879Z,29.96
2023-06-10T13:40:03.598Z,30.44
2023-06-10T13:42:30.512Z,30.62
2023-06-10T13:44:57.903Z,31.40
2023-06-10T13:47:24.453Z,31.78
2023-06-10T13:49:51.182Z,32.25
2023-06-10T13:52:17.949Z,32.46
2023-06-10T13:54:44.517Z,32.82
2023-06-10T13:57:11.740Z,33.00
2023-06-10T13:59:38.567Z,32.90
2023-06-10T14:02:07.917Z,30.76
2023-06-10T14:04:34.532Z,30.15
2023-06-10T14:07:01.784Z,29.45
2023-06-10T14:09:28.235Z,29.50
2023-06-10T14:11:55.456Z,29.16
2023-06-10T14:14:21.943Z,29.29
2023-06-10T14:16:48.583Z,29.51
2023-06-10T14:19:15.198Z,30.01
2023-06-10T14:21:41.757Z,30.81
2023-06-10T14:24:08.287Z,31.51
2023-06-10T14:26:34.921Z,31.44
2023-06-10T14:29:03.466Z,30.65
2023-06-10T14:31:30.093Z,29.83
2023-06-10T14:33:56.564Z,29.68
2023-06-10T14:36:23.142Z,29.48
2023-06-10T14:38:49.947Z,29.72
2023-06-10T14:41:16.569Z,29.67
2023-06-10T14:43:42.978Z,29.88
2023-06-10T14:46:09.566Z,30.58
2023-06-10T14:48:36.273Z,31.03
2023-06-10T14:51:03.432Z,31.30
2023-06-10T14:53:30.343Z,31.55
2023-06-10T14:55:56.884Z,31.89
2023-06-10T14:58:23.419Z,31.74
2023-06-10T15:00:50.031Z,31.05
2023-06-10T15:03:16.488Z,30.13
2023-06-10T15:05:42.925Z,29.96
2023-06-10T15:08:09.410Z,29.62
2023-06-10T15:10:35.972Z,29.12
2023-06-10T15:13:02.404Z,29.11
2023-06-10T15:15:29.077Z,29.63
2023-06-10T15:17:55.552Z,30.16
2023-06-10T15:20:22.240Z,30.58
2023-06-10T15:22:48.634Z,30.86
2023-06-10T15:27:45.330Z,30.71
2023-06-10T15:30:11.970Z,30.83
2023-06-10T15:32:38.715Z,30.31
2023-06-10T15:35:05.724Z,30.22
2023-06-10T15:37:32.215Z,29.87
2023-06-10T15:39:58.765Z,29.81
2023-06-10T15:42:25.427Z,29.72
2023-06-10T15:44:53.743Z,29.77
2023-06-10T15:47:21.473Z,29.26
2023-06-10T15:49:48.285Z,29.27
2023-06-10T15:52:14.845Z,29.52
2023-06-10T15:54:41.371Z,29.81
2023-06-10T15:57:09.367Z,29.74
2023-06-10T15:59:36.156Z,29.76
2023-06-10T16:02:04.359Z,29.63
2023-06-10T16:04:30.988Z,29.63
2023-06-10T16:06:58.246Z,29.13
2023-06-10T16:09:24.875Z,29.20
2023-06-10T16:11:51.380Z,29.05
2023-06-10T16:14:17.835Z,29.40
2023-06-10T16:16:44.437Z,29.04
2023-06-10T16:19:11.056Z,29.41
2023-06-10T16:21:38.499Z,29.19
2023-06-10T16:24:05.593Z,29.34
2023-06-10T16:26:32.708Z,29.50
2023-06-10T16:29:01.300Z,29.63
2023-06-10T16:31:27.961Z,29.70
2023-06-10T16:33:54.458Z,29.76
2023-06-10T16:36:20.934Z,30.09
2023-06-10T16:38:47.882Z,30.32
2023-06-10T16:41:14.365Z,30.42
2023-06-10T16:43:40.916Z,29.45
2023-06-10T16:46:07.633Z,28.87
2023-06-10T16:48:34.044Z,28.92
2023-06-10T16:51:00.567Z,28.98
2023-06-10T16:53:27.583Z,29.19
2023-06-10T16:55:54.118Z,29.08
2023-06-10T16:58:20.586Z,29.08
2023-06-10T17:00:47.309Z,28.71
2023-06-10T17:03:13.972Z,29.28
2023-06-10T17:05:40.496Z,29.32
2023-06-10T17:08:07.737Z,29.44
2023-06-10T17:10:35.961Z,28.75
2023-06-10T17:13:02.882Z,28.54
2023-06-10T17:15:29.375Z,28.82
2023-06-10T17:17:56.164Z,28.84
2023-06-10T17:20:22.851Z,28.70
2023-06-10T17:22:49.302Z,28.44
2023-06-10T17:25:16.206Z,28.66
2023-06-10T17:27:42.854Z,28.56
2023-06-10T17:30:09.813Z,28.92
2023-06-10T17:32:38.204Z,28.77
2023-06-10T17:35:05.448Z,28.55
2023-06-10T17:37:32.171Z,28.76
2023-06-10T17:39:59.030Z,28.28
2023-06-10T17:42:25.632Z,28.40
2023-06-10T17:44:52.178Z,28.37
2023-06-10T17:47:18.779Z,28.70
2023-06-10T17:49:45.274Z,28.90
2023-06-10T17:52:11.814Z,28.74
2023-06-10T17:54:38.416Z,28.92
2023-06-10T17:57:05.169Z,28.80
2023-06-10T17:59:31.675Z,28.58
2023-06-10T18:01:58.231Z,28.18
2023-06-10T18:04:24.885Z,28.31
2023-06-10T18:06:51.410Z,27.92
2023-06-10T18:09:18.234Z,27.76
2023-06-10T18:11:44.863Z,27.75
2023-06-10T18:14:12.765Z,27.66
2023-06-10T18:16:39.327Z,27.80
2023-06-10T18:19:06.405Z,27.61
2023-06-10T18:21:33.032Z,27.49
2023-06-10T18:23:59.746Z,27.23
2023-06-10T18:26:26.906Z,26.99
2023-06-10T18:28:53.385Z,26.98
2023-06-10T18:31:20.054Z,27.06
2023-06-10T18:33:50.114Z,26.97
2023-06-10T18:36:16.612Z,27.02
2023-06-10T18:38:43.171Z,26.55
2023-06-10T18:41:09.664Z,26.47
2023-06-10T18:43:36.204Z,26.06
2023-06-10T18:46:03.065Z,25.85
2023-06-10T18:48:29.754Z,25.86
2023-06-10T18:50:56.364Z,25.79
2023-06-10T18:53:23.046Z,26.00
2023-06-10T18:55:49.562Z,26.18
2023-06-10T18:58:16.156Z,26.08
2023-06-10T19:00:42.726Z,26.22
2023-06-10T19:03:09.395Z,26.05
2023-06-10T19:05:35.911Z,25.92
2023-06-10T19:08:02.431Z,26.28
2023-06-10T19:10:28.884Z,26.09
2023-06-10T19:12:55.502Z,25.78
2023-06-10T19:15:22.027Z,25.80
2023-06-10T19:17:48.555Z,25.84
2023-06-10T19:20:15.041Z,25.86
2023-06-10T19:22:41.613Z,25.83
2023-06-10T19:25:08.780Z,25.73
2023-06-10T19:27:35.730Z,25.80
2023-06-10T19:30:07.880Z,25.78
2023-06-10T19:32:35.636Z,25.48
2023-06-10T19:35:02.240Z,25.79
2023-06-10T19:37:28.739Z,25.54
2023-06-10T19:39:55.227Z,25.40
2023-06-10T19:42:21.758Z,25.39
2023-06-10T19:44:48.806Z,25.29
2023-06-10T19:47:15.420Z,25.13
2023-06-10T19:49:42.606Z,24.95
2023-06-10T19:52:09.431Z,25.00
2023-06-10T19:54:36.726Z,25.10
2023-06-10T19:57:03.891Z,25.13
2023-06-10T19:59:31.047Z,25.18
2023-06-10T20:01:59.943Z,25.10
2023-06-10T20:04:30.133Z,25.13
2023-06-10T20:06:57.019Z,25.06
2023-06-10T20:09:23.866Z,25.10
2023-06-10T20:11:50.438Z,25.24
2023-06-10T20:14:31.049Z,25.03
2023-06-10T20:16:57.500Z,24.97
2023-06-10T20:19:24.083Z,24.70
2023-06-10T20:21:50.567Z,24.55
2023-06-10T20:24:17.228Z,24.51
2023-06-10T20:26:43.845Z,24.48
2023-06-10T20:29:16.143Z,24.27
2023-06-10T20:31:46.290Z,24.17
2023-06-10T20:34:15.242Z,24.28
2023-06-10T20:36:42.548Z,24.38
2023-06-10T20:39:09.109Z,24.56
2023-06-10T20:41:35.655Z,24.42
2023-06-10T20:44:02.249Z,24.49
2023-06-10T20:46:28.820Z,24.34
2023-06-10T20:48:55.480Z,24.49
2023-06-10T20:51:22.747Z,24.43
2023-06-10T20:53:49.345Z,24.34
2023-06-10T20:56:15.970Z,24.08
2023-06-10T20:58:42.809Z,24.24
2023-06-10T21:01:11.262Z,24.14
2023-06-10T21:03:38.099Z,24.29
2023-06-10T21:06:04.895Z,24.10
2023-06-10T21:08:31.606Z,24.06
2023-06-10T21:10:58.175Z,23.88
2023-06-10T21:13:24.784Z,24.21
2023-06-10T21:15:51.303Z,24.00
2023-06-10T21:18:17.890Z,24.00
2023-06-10T21:20:45.568Z,23.85
2023-06-10T21:23:13.242Z,23.60
2023-06-10T21:25:40.264Z,23.72
2023-06-10T21:28:06.862Z,23.62
2023-06-10T21:30:33.415Z,23.52
2023-06-10T21:33:00.046Z,23.78
2023-06-10T21:35:26.564Z,23.61
2023-06-10T21:37:53.071Z,23.52
2023-06-10T21:40:19.817Z,23.26
2023-06-10T21:42:46.339Z,23.52
2023-06-10T21:45:13.402Z,23.57
2023-06-10T21:47:41.717Z,23.29
2023-06-10T21:50:09.472Z,23.13
2023-06-10T21:52:40.387Z,23.31
2023-06-10T21:55:12.593Z,23.42
2023-06-10T21:57:45.682Z,23.38
2023-06-10T22:00:14.594Z,23.32
2023-06-10T22:02:47.543Z,23.42
2023-06-10T22:05:20.002Z,23.26
2023-06-10T22:07:47.292Z,23.18
2023-06-10T22:10:20.029Z,23.05
2023-06-10T22:12:48.625Z,22.86
2023-06-10T22:18:05.129Z,23.12
2023-06-10T22:20:35.366Z,22.95
2023-06-10T22:47:51.816Z,22.51
2023-06-10T22:51:49.740Z,22.33
2023-06-10T23:01:36.657Z,22.07
2023-06-10T23:04:06.740Z,22.21
2023-06-10T23:14:48.525Z,22.05
2023-06-10T23:20:41.678Z,22.12
2023-06-10T23:27:04.656Z,22.04
2023-06-10T23:29:35.281Z,22.03
2023-06-10T23:32:04.167Z,21.97
2023-06-10T23:34:30.821Z,21.79
2023-06-10T23:36:57.573Z,21.82
2023-06-10T23:39:24.130Z,21.79
2023-06-10T23:41:50.682Z,21.93
2023-06-10T23:44:17.246Z,21.86
2023-06-10T23:46:43.744Z,21.89
2023-06-10T23:49:10.589Z,21.77
2023-06-10T23:51:38.302Z,21.83
2023-06-10T23:54:05.689Z,21.62
2023-06-10T23:56:32.211Z,21.38
2023-06-10T23:58:58.635Z,21.50
